Time;durP1;ratioP1;P1;durP2;ratioP2;P2;SDS_P1;SDS_P2;PMS_P1;PMS_P2;Temp;Humidity;BMP_temperature;BMP_pressure;BME280_temperature;BME280_humidity;BME280_pressure;Samples;Min_cycle;Max_cycle;Signal;HPM_P1;HPM_P2
2022/01/22 00:01:14;;;;;;;12.30;5.13;;;-0.20;99.90;;;;;;5060485;28;20591;-84
2022/01/22 00:04:05;;;;;;;12.50;5.20;;;-0.20;99.90;;;;;;5057316;28;20236;-86
2022/01/22 00:06:55;;;;;;;11.13;4.67;;;-0.10;99.90;;;;;;5057136;28;20260;-84
2022/01/22 00:10:07;;;;;;;11.63;5.50;;;-0.20;99.90;;;;;;5048094;28;20243;-89
2022/01/22 00:13:07;;;;;;;15.03;5.23;;;-0.30;99.90;;;;;;5052609;28;20230;-90
2022/01/22 00:15:57;;;;;;;11.73;5.03;;;-0.30;99.90;;;;;;5044547;28;20226;-91
2022/01/22 00:18:46;;;;;;;9.37;4.50;;;-0.20;99.90;;;;;;5048772;28;20775;-88
2022/01/22 00:21:36;;;;;;;10.13;5.00;;;-0.30;99.90;;;;;;5046280;28;20225;-82
2022/01/22 00:24:24;;;;;;;11.97;4.67;;;-0.30;99.90;;;;;;5052253;28;20233;-82
2022/01/22 00:27:13;;;;;;;11.27;4.90;;;-0.30;99.90;;;;;;5053980;28;20226;-83
2022/01/22 00:30:02;;;;;;;11.70;4.70;;;-0.40;99.90;;;;;;5050121;28;20294;-82
2022/01/22 00:32:51;;;;;;;10.73;5.00;;;-0.30;99.90;;;;;;5049153;28;20228;-83
2022/01/22 00:35:40;;;;;;;11.53;4.53;;;-0.40;99.90;;;;;;5068876;28;20227;-83
2022/01/22 00:38:30;;;;;;;9.37;4.40;;;-0.40;99.90;;;;;;5039270;28;20205;-82
2022/01/22 00:41:19;;;;;;;10.23;4.00;;;-0.40;99.90;;;;;;5041909;28;20228;-81
2022/01/22 00:44:08;;;;;;;10.73;4.73;;;-0.50;99.90;;;;;;5056374;28;20234;-83
2022/01/22 00:47:00;;;;;;;11.90;4.50;;;-0.40;99.90;;;;;;5066122;28;20219;-80
2022/01/22 00:49:49;;;;;;;10.77;4.47;;;-0.50;99.90;;;;;;5071820;28;20720;-80
2022/01/22 00:52:37;;;;;;;10.60;4.60;;;-0.60;99.90;;;;;;5046874;28;20222;-81
2022/01/22 00:55:28;;;;;;;8.23;4.47;;;-0.50;99.90;;;;;;5047277;28;20214;-80
2022/01/22 00:58:16;;;;;;;9.93;4.43;;;-0.50;99.90;;;;;;5045377;28;20237;-80
2022/01/22 01:01:05;;;;;;;9.37;4.77;;;-0.60;99.90;;;;;;5059693;28;20560;-80
2022/01/22 01:03:57;;;;;;;11.87;5.27;;;-0.60;99.90;;;;;;5062933;28;20309;-80
2022/01/22 01:06:46;;;;;;;12.87;5.27;;;-0.60;99.90;;;;;;5046036;28;20230;-79
2022/01/22 01:09:37;;;;;;;12.37;5.53;;;-0.70;99.90;;;;;;5048182;28;20286;-78
2022/01/22 01:12:31;;;;;;;11.47;5.60;;;-0.60;99.90;;;;;;5046503;28;20212;-83
2022/01/22 01:15:37;;;;;;;14.70;6.17;;;-0.50;99.90;;;;;;5050408;28;20313;-79
2022/01/22 01:34:13;;;;;;;14.43;6.20;;;-0.70;99.90;;;;;;5012968;28;20243;-83
2022/01/22 01:37:01;;;;;;;12.20;5.90;;;-0.70;99.90;;;;;;5047599;28;20237;-84
2022/01/22 01:39:55;;;;;;;11.07;5.37;;;-0.70;99.90;;;;;;5036496;28;20225;-83
2022/01/22 01:42:49;;;;;;;10.67;5.60;;;-0.70;99.90;;;;;;5048931;28;20227;-82
2022/01/22 01:45:39;;;;;;;11.57;5.53;;;-0.70;99.90;;;;;;5044054;28;20302;-84
2022/01/22 01:48:32;;;;;;;13.13;5.17;;;-0.70;99.90;;;;;;5043956;28;20218;-83
2022/01/22 01:51:23;;;;;;;15.23;5.47;;;-0.80;99.90;;;;;;5061236;28;20218;-83
2022/01/22 01:54:27;;;;;;;10.03;5.70;;;-0.80;99.90;;;;;;5043553;28;20623;-84
2022/01/22 01:57:32;;;;;;;11.33;5.10;;;-0.70;99.90;;;;;;5043143;28;20297;-78
2022/01/22 02:00:29;;;;;;;12.50;5.70;;;-0.80;99.90;;;;;;5046777;28;21192;-84
2022/01/22 02:03:23;;;;;;;11.87;5.17;;;-0.70;99.90;;;;;;5054068;28;20218;-84
2022/01/22 02:06:23;;;;;;;11.10;4.90;;;-0.70;99.90;;;;;;5053122;28;20891;-84
2022/01/22 02:09:12;;;;;;;11.47;5.13;;;-0.70;99.90;;;;;;5050841;28;20298;-84
2022/01/22 02:12:06;;;;;;;11.70;4.97;;;-0.60;99.90;;;;;;5059441;28;20223;-85
2022/01/22 02:24:51;;;;;;;10.30;4.97;;;-0.60;99.90;;;;;;5040820;28;20309;-85
2022/01/22 02:27:39;;;;;;;12.53;4.80;;;-0.50;99.90;;;;;;5058173;28;20241;-84
2022/01/22 02:30:33;;;;;;;10.23;4.97;;;-0.40;99.90;;;;;;5060418;28;20894;-84
2022/01/22 02:33:49;;;;;;;8.57;5.10;;;-0.50;99.90;;;;;;5073945;28;20251;-83
2022/01/22 02:36:43;;;;;;;13.37;5.10;;;-0.50;99.90;;;;;;5058228;28;20224;-82
2022/01/22 02:39:39;;;;;;;12.57;5.10;;;-0.40;99.90;;;;;;5075294;28;20310;-83
2022/01/22 02:42:31;;;;;;;12.77;4.80;;;-0.50;99.90;;;;;;5068874;28;20221;-83
2022/01/22 02:45:23;;;;;;;10.57;4.90;;;-0.50;99.90;;;;;;5058606;28;20587;-83
2022/01/22 02:48:12;;;;;;;11.60;4.50;;;-0.70;99.90;;;;;;5071337;28;20233;-84
2022/01/22 02:51:01;;;;;;;9.57;4.37;;;-0.80;99.90;;;;;;5056914;28;20351;-85
2022/01/22 02:53:53;;;;;;;9.50;4.50;;;-0.70;99.90;;;;;;5057441;28;20234;-85
2022/01/22 02:56:43;;;;;;;15.77;4.83;;;-0.60;99.90;;;;;;5064742;28;20217;-84
2022/01/22 02:59:32;;;;;;;11.17;4.67;;;-0.70;99.90;;;;;;5056006;28;20585;-84
2022/01/22 03:02:21;;;;;;;10.90;4.30;;;-0.70;99.90;;;;;;5055556;28;20218;-82
2022/01/22 03:05:14;;;;;;;11.20;4.60;;;-0.80;99.90;;;;;;5061844;28;20232;-82
2022/01/22 03:08:07;;;;;;;10.43;4.63;;;-0.80;99.90;;;;;;5049071;28;20586;-85
2022/01/22 03:10:56;;;;;;;10.03;3.90;;;-0.70;99.90;;;;;;5052686;28;20714;-85
2022/01/22 03:14:30;;;;;;;8.10;3.90;;;-0.70;99.90;;;;;;5053054;28;20233;-86
2022/01/22 03:17:36;;;;;;;11.57;4.37;;;-0.80;99.90;;;;;;5054449;28;20222;-85
2022/01/22 03:20:39;;;;;;;7.80;3.90;;;-0.80;99.90;;;;;;5052294;28;20210;-84
2022/01/22 03:29:43;;;;;;;11.43;3.97;;;-0.80;99.90;;;;;;5057988;28;20220;-82
2022/01/22 03:32:37;;;;;;;10.43;4.20;;;-0.80;99.90;;;;;;5045109;28;20213;-84
2022/01/22 03:35:33;;;;;;;9.53;3.50;;;-0.80;99.90;;;;;;5056615;28;20224;-84
2022/01/22 03:38:23;;;;;;;10.10;4.00;;;-0.80;99.90;;;;;;5046486;28;20225;-85
2022/01/22 03:41:11;;;;;;;11.30;3.70;;;-0.70;99.90;;;;;;5057715;28;20220;-85
2022/01/22 03:44:01;;;;;;;7.37;3.60;;;-0.70;99.90;;;;;;5052267;28;20664;-85
2022/01/22 03:46:51;;;;;;;15.70;3.73;;;-0.70;99.90;;;;;;5051834;28;20225;-85
2022/01/22 03:49:40;;;;;;;9.03;3.80;;;-0.70;99.90;;;;;;5050431;28;20321;-84
2022/01/22 03:52:32;;;;;;;11.00;4.00;;;-0.60;99.90;;;;;;5055922;28;20235;-86
2022/01/22 03:55:33;;;;;;;8.77;3.60;;;-0.60;99.90;;;;;;5060612;28;20245;-85
2022/01/22 03:58:46;;;;;;;9.67;3.33;;;-0.50;99.90;;;;;;5044486;28;20230;-86
2022/01/22 04:05:10;;;;;;;7.10;3.53;;;-0.50;99.90;;;;;;5027995;28;20228;-87
2022/01/22 04:08:14;;;;;;;14.03;4.23;;;-0.50;99.90;;;;;;5055769;28;20314;-87
2022/01/22 04:11:03;;;;;;;13.40;3.73;;;-0.60;99.90;;;;;;5041310;28;20295;-87
2022/01/22 04:13:59;;;;;;;10.83;3.93;;;-0.60;99.90;;;;;;5049042;28;20284;-86
2022/01/22 04:17:02;;;;;;;9.97;3.63;;;-0.50;99.90;;;;;;5073580;28;20671;-86
2022/01/22 04:26:13;;;;;;;11.50;5.80;;;-0.50;99.90;;;;;;5069673;28;20226;-88
2022/01/22 04:29:03;;;;;;;10.40;3.47;;;-0.50;99.90;;;;;;5077203;28;20221;-86
2022/01/22 04:31:53;;;;;;;14.17;3.70;;;-0.50;99.90;;;;;;5082906;28;20217;-87
2022/01/22 04:34:41;;;;;;;12.73;3.63;;;-0.60;99.90;;;;;;5071531;28;20217;-87
2022/01/22 04:37:31;;;;;;;11.93;3.67;;;-0.60;99.90;;;;;;5057848;28;20210;-85
2022/01/22 04:40:20;;;;;;;8.57;3.27;;;-0.60;99.90;;;;;;5053121;28;20233;-88
2022/01/22 04:43:10;;;;;;;8.77;3.50;;;-0.60;99.90;;;;;;5040355;28;20229;-87
2022/01/22 04:46:10;;;;;;;10.90;3.67;;;-0.50;99.90;;;;;;5055644;28;20223;-88
2022/01/22 04:49:09;;;;;;;8.43;3.60;;;-0.60;99.90;;;;;;5048573;28;20217;-87
2022/01/22 04:55:09;;;;;;;9.00;3.30;;;-0.60;99.90;;;;;;5052668;28;20228;-87
2022/01/22 04:57:58;;;;;;;10.17;3.23;;;-0.60;99.90;;;;;;5048613;28;20224;-88
2022/01/22 05:00:48;;;;;;;9.73;2.93;;;-0.50;99.90;;;;;;5069506;28;20221;-88
2022/01/22 05:03:57;;;;;;;6.00;3.13;;;-0.40;99.90;;;;;;5040881;28;20231;-87
2022/01/22 05:07:18;;;;;;;12.10;3.60;;;-0.50;99.90;;;;;;5031559;28;20985;-86
2022/01/22 05:10:25;;;;;;;12.13;4.00;;;-0.40;99.90;;;;;;5071465;28;20272;-89
2022/01/22 05:13:14;;;;;;;12.13;3.40;;;-0.40;99.90;;;;;;5052323;28;20207;-89
2022/01/22 05:16:04;;;;;;;7.83;3.30;;;-0.40;99.90;;;;;;5070451;28;20221;-88
2022/01/22 05:18:58;;;;;;;9.60;3.60;;;-0.30;99.90;;;;;;5056133;28;20226;-92
2022/01/22 05:21:50;;;;;;;9.17;3.30;;;-0.30;99.90;;;;;;5039630;28;20277;-88
2022/01/22 05:24:43;;;;;;;10.13;3.20;;;-0.50;99.90;;;;;;5041769;28;20235;-90
2022/01/22 05:27:51;;;;;;;9.20;3.63;;;-0.50;99.90;;;;;;5069584;28;20217;-91
2022/01/22 05:31:04;;;;;;;13.47;3.60;;;-0.40;99.90;;;;;;5044356;28;20330;-88
2022/01/22 05:37:20;;;;;;;9.27;3.07;;;-0.30;99.90;;;;;;5052115;28;20306;-91
2022/01/22 05:40:10;;;;;;;10.40;3.60;;;-0.20;99.90;;;;;;5053140;28;20290;-91
2022/01/22 05:43:00;;;;;;;5.60;2.73;;;-0.10;99.90;;;;;;5054346;28;20253;-90
2022/01/22 05:45:49;;;;;;;7.60;2.70;;;-0.10;99.90;;;;;;5072205;28;20225;-91
2022/01/22 05:48:38;;;;;;;9.53;3.00;;;-0.10;99.90;;;;;;5064962;28;20232;-87
2022/01/22 05:51:26;;;;;;;9.40;3.20;;;-0.10;99.90;;;;;;5050607;28;20229;-87
2022/01/22 05:54:43;;;;;;;6.37;3.00;;;-0.10;99.90;;;;;;5062067;28;20281;-87
2022/01/22 06:00:48;;;;;;;8.03;2.70;;;0.00;99.90;;;;;;5050751;28;20939;-86
2022/01/22 06:03:48;;;;;;;12.20;2.80;;;0.00;99.90;;;;;;5066711;28;20231;-88
2022/01/22 06:06:36;;;;;;;10.27;3.03;;;0.10;99.90;;;;;;5068073;28;20277;-87
2022/01/22 06:09:28;;;;;;;9.47;3.43;;;0.00;99.90;;;;;;5068387;28;20280;-89
2022/01/22 06:12:29;;;;;;;6.67;2.73;;;0.00;99.90;;;;;;5067128;28;21007;-89
2022/01/22 06:15:18;;;;;;;8.90;3.03;;;-0.10;99.90;;;;;;5077885;28;20874;-89
2022/01/22 06:18:26;;;;;;;7.67;2.83;;;0.00;99.90;;;;;;5075679;28;20220;-88
2022/01/22 06:21:15;;;;;;;8.93;3.10;;;-0.20;99.90;;;;;;5062802;28;20256;-91
2022/01/22 06:24:05;;;;;;;9.67;2.57;;;-0.20;99.90;;;;;;5049836;28;20228;-91
2022/01/22 06:26:54;;;;;;;9.60;2.73;;;-0.10;99.90;;;;;;5054826;28;20684;-90
2022/01/22 06:29:42;;;;;;;9.77;2.83;;;-0.20;99.90;;;;;;5043796;28;20292;-90
2022/01/22 06:32:35;;;;;;;10.60;2.90;;;-0.20;99.90;;;;;;5050409;28;20215;-86
2022/01/22 06:35:25;;;;;;;8.00;3.03;;;-0.10;99.90;;;;;;5050316;28;20221;-85
2022/01/22 06:38:14;;;;;;;11.47;2.80;;;-0.20;99.90;;;;;;5057093;28;20213;-86
2022/01/22 06:44:47;;;;;;;8.33;2.47;;;-0.10;99.90;;;;;;5069366;28;20229;-87
2022/01/22 06:47:59;;;;;;;7.67;2.70;;;0.00;99.90;;;;;;5075899;28;20242;-87
2022/01/22 06:50:52;;;;;;;11.73;2.60;;;0.10;99.90;;;;;;5054187;28;20301;-86
2022/01/22 06:53:41;;;;;;;10.13;2.63;;;0.10;99.90;;;;;;5054155;28;20223;-89
2022/01/22 06:56:33;;;;;;;9.57;2.70;;;0.10;99.90;;;;;;5055611;28;20220;-88
2022/01/22 06:59:29;;;;;;;6.43;2.43;;;0.20;99.90;;;;;;5065418;28;20218;-88
2022/01/22 07:02:19;;;;;;;13.23;2.90;;;0.30;99.90;;;;;;5055913;28;20223;-87
2022/01/22 07:05:11;;;;;;;10.47;2.97;;;-0.10;99.90;;;;;;5075435;28;20244;-92
2022/01/22 07:08:01;;;;;;;9.77;2.40;;;-0.10;99.90;;;;;;5085098;28;20215;-92
2022/01/22 07:10:53;;;;;;;6.63;2.57;;;0.10;99.90;;;;;;5053333;28;20223;-87
2022/01/22 07:13:41;;;;;;;7.87;2.90;;;0.00;99.90;;;;;;5054178;28;20243;-88
2022/01/22 07:16:31;;;;;;;10.60;3.00;;;0.10;99.90;;;;;;5059431;28;20211;-88
2022/01/22 07:19:46;;;;;;;7.90;2.60;;;0.20;99.90;;;;;;5069525;28;20226;-86
2022/01/22 07:22:48;;;;;;;9.83;2.57;;;0.30;99.90;;;;;;5047816;28;20227;-87
2022/01/22 07:26:04;;;;;;;9.53;2.90;;;0.40;99.90;;;;;;5064634;28;20337;-86
2022/01/22 07:29:02;;;;;;;8.60;2.90;;;0.40;99.90;;;;;;5075384;28;20256;-89
2022/01/22 07:32:00;;;;;;;8.53;2.93;;;0.50;99.90;;;;;;5058274;28;20220;-87
2022/01/22 07:34:49;;;;;;;7.03;2.87;;;0.60;99.90;;;;;;5056038;28;20705;-88
2022/01/22 07:37:42;;;;;;;11.83;3.17;;;0.50;99.90;;;;;;5056367;28;20230;-86
2022/01/22 07:40:38;;;;;;;10.27;3.27;;;0.60;99.90;;;;;;5074281;28;20215;-87
2022/01/22 07:43:41;;;;;;;8.83;3.43;;;0.60;99.90;;;;;;5044021;28;20232;-87
2022/01/22 07:47:04;;;;;;;14.63;4.03;;;0.70;99.90;;;;;;5061787;28;20716;-84
2022/01/22 07:49:54;;;;;;;11.87;3.07;;;0.80;99.90;;;;;;5051577;28;20223;-84
2022/01/22 07:52:43;;;;;;;7.07;3.20;;;0.70;99.90;;;;;;5041435;28;20655;-84
2022/01/22 07:55:32;;;;;;;9.53;3.20;;;0.80;99.90;;;;;;5061955;28;20220;-83
2022/01/22 07:58:21;;;;;;;10.67;4.00;;;0.80;99.90;;;;;;5058864;28;20666;-83
2022/01/22 08:01:11;;;;;;;13.13;3.80;;;0.60;99.90;;;;;;5057752;28;20227;-84
2022/01/22 08:04:23;;;;;;;11.50;3.90;;;0.50;99.90;;;;;;5050133;28;20243;-83
2022/01/22 08:07:31;;;;;;;11.33;4.00;;;0.70;99.90;;;;;;5061715;28;20223;-86
2022/01/22 08:10:38;;;;;;;8.47;3.43;;;0.70;99.90;;;;;;5071789;28;20211;-85
2022/01/22 08:13:29;;;;;;;8.63;4.17;;;0.70;99.90;;;;;;5069550;28;20219;-82
2022/01/22 08:16:19;;;;;;;9.30;3.67;;;0.80;99.90;;;;;;5066336;28;20216;-82
2022/01/22 08:19:08;;;;;;;7.80;3.53;;;0.80;99.90;;;;;;5073798;28;20272;-85
2022/01/22 08:21:57;;;;;;;14.00;3.80;;;0.60;99.90;;;;;;5069974;28;20207;-85
2022/01/22 08:25:05;;;;;;;10.40;3.77;;;0.80;99.90;;;;;;5086028;28;20295;-85
2022/01/22 08:31:15;;;;;;;9.53;4.37;;;0.90;99.90;;;;;;5057798;28;20274;-82
2022/01/22 08:37:15;;;;;;;10.63;3.80;;;1.00;99.90;;;;;;5072130;28;20215;-87
2022/01/22 08:40:05;;;;;;;13.10;4.03;;;1.00;99.90;;;;;;5066003;28;20225;-90
2022/01/22 08:42:54;;;;;;;10.63;3.97;;;1.10;99.90;;;;;;5061106;28;20300;-84
2022/01/22 08:45:43;;;;;;;7.27;3.60;;;1.00;99.90;;;;;;5065013;28;20228;-86
2022/01/22 08:48:32;;;;;;;8.67;3.50;;;1.00;99.90;;;;;;5063409;28;20235;-83
2022/01/22 08:51:23;;;;;;;9.03;3.67;;;1.00;99.90;;;;;;5064861;28;20299;-83
2022/01/22 08:54:13;;;;;;;9.47;3.63;;;0.80;99.90;;;;;;5063537;28;20238;-80
2022/01/22 08:57:04;;;;;;;9.60;4.00;;;0.90;99.90;;;;;;5027164;28;20220;-77
2022/01/22 08:59:53;;;;;;;9.53;3.63;;;1.30;99.90;;;;;;5055183;28;20247;-77
2022/01/22 09:02:44;;;;;;;11.07;3.90;;;1.10;99.90;;;;;;5046816;28;20589;-77
2022/01/22 09:05:42;;;;;;;8.93;3.87;;;1.50;99.90;;;;;;5043806;28;20231;-76
2022/01/22 09:08:51;;;;;;;10.43;3.47;;;1.50;99.90;;;;;;5057296;28;20235;-75
2022/01/22 09:11:56;;;;;;;6.17;2.83;;;1.50;99.90;;;;;;5030713;28;20307;-75
2022/01/22 09:15:17;;;;;;;6.67;3.40;;;1.20;99.90;;;;;;5017413;28;20225;-75
2022/01/22 09:18:07;;;;;;;8.80;3.73;;;1.40;99.90;;;;;;5049448;28;20219;-75
2022/01/22 09:21:02;;;;;;;13.00;3.63;;;1.30;99.90;;;;;;5059694;28;20295;-75
2022/01/22 09:23:57;;;;;;;7.73;3.77;;;1.40;99.90;;;;;;5064293;28;20219;-76
2022/01/22 09:26:45;;;;;;;5.13;3.20;;;1.30;99.90;;;;;;5065647;28;20319;-75
2022/01/22 09:29:36;;;;;;;9.20;3.30;;;1.40;99.90;;;;;;5061179;28;20707;-75
2022/01/22 09:32:25;;;;;;;7.97;3.00;;;1.50;99.90;;;;;;5064677;28;20537;-73
2022/01/22 09:35:19;;;;;;;7.60;2.57;;;1.20;99.90;;;;;;5063390;28;20298;-74
2022/01/22 09:38:26;;;;;;;3.57;2.20;;;1.40;99.90;;;;;;5064440;28;20232;-76
2022/01/22 09:41:42;;;;;;;5.67;2.30;;;1.20;99.90;;;;;;5062896;28;20719;-77
2022/01/22 09:45:15;;;;;;;6.07;2.13;;;1.10;99.90;;;;;;5077483;28;20219;-77
2022/01/22 09:48:25;;;;;;;5.67;2.30;;;0.90;99.90;;;;;;5069159;28;20280;-77
2022/01/22 09:51:24;;;;;;;7.30;2.93;;;0.90;99.90;;;;;;5064986;28;20230;-76
2022/01/22 09:54:35;;;;;;;6.43;3.90;;;1.10;99.90;;;;;;5042264;28;20576;-76
2022/01/22 09:57:48;;;;;;;5.13;3.17;;;1.00;99.90;;;;;;5081061;28;21465;-77
2022/01/22 10:01:19;;;;;;;7.93;3.60;;;1.10;99.90;;;;;;5079171;28;20369;-79
2022/01/22 10:04:09;;;;;;;5.77;2.53;;;1.20;99.90;;;;;;5066587;28;20215;-76
2022/01/22 10:07:00;;;;;;;4.20;2.60;;;1.10;99.90;;;;;;5082208;28;21045;-75
2022/01/22 10:10:09;;;;;;;8.63;2.80;;;1.30;99.90;;;;;;5057705;28;20574;-77
2022/01/22 10:13:02;;;;;;;4.63;2.50;;;1.30;99.90;;;;;;5067940;28;20352;-76
2022/01/22 10:16:11;;;;;;;8.93;4.70;;;1.30;99.90;;;;;;5076779;28;20214;-76
2022/01/22 10:19:15;;;;;;;7.53;3.70;;;1.30;99.90;;;;;;5072939;28;20227;-76
2022/01/22 10:22:04;;;;;;;7.13;4.43;;;1.40;99.90;;;;;;5053397;28;20700;-78
2022/01/22 10:24:58;;;;;;;13.13;6.50;;;1.50;99.90;;;;;;5062736;28;20229;-77
2022/01/22 10:27:55;;;;;;;11.93;6.40;;;1.40;99.90;;;;;;5068460;28;20241;-76
2022/01/22 10:30:47;;;;;;;8.57;4.27;;;1.30;99.90;;;;;;5042513;28;20224;-76
2022/01/22 10:33:38;;;;;;;11.57;6.93;;;1.30;99.90;;;;;;5064088;28;20212;-76
2022/01/22 10:36:58;;;;;;;13.03;6.40;;;1.30;99.90;;;;;;5061267;28;20221;-76
2022/01/22 10:40:21;;;;;;;7.73;2.90;;;1.60;99.90;;;;;;5050059;28;20691;-77
2022/01/22 10:43:17;;;;;;;6.73;4.07;;;1.40;99.90;;;;;;5069841;28;20381;-75
2022/01/22 10:46:13;;;;;;;6.57;3.67;;;1.40;99.90;;;;;;5079794;28;20230;-78
2022/01/22 10:49:07;;;;;;;5.40;2.40;;;1.60;99.90;;;;;;5057681;28;20518;-78
2022/01/22 10:51:59;;;;;;;4.20;2.30;;;1.40;99.90;;;;;;5081536;28;20325;-82
2022/01/22 10:54:48;;;;;;;5.47;2.57;;;1.20;99.90;;;;;;5081617;28;20220;-82
2022/01/22 10:57:37;;;;;;;4.93;3.10;;;1.40;99.90;;;;;;5079768;28;20298;-82
2022/01/22 11:00:25;;;;;;;4.07;2.47;;;1.20;99.90;;;;;;5077255;28;20223;-81
2022/01/22 11:03:23;;;;;;;6.83;3.23;;;1.10;99.90;;;;;;5068172;28;20219;-81
2022/01/22 11:06:25;;;;;;;7.80;3.90;;;0.90;99.90;;;;;;5072620;28;20223;-81
2022/01/22 11:09:15;;;;;;;3.17;2.00;;;1.10;99.90;;;;;;5084890;28;20227;-79
2022/01/22 11:12:06;;;;;;;3.77;2.20;;;1.10;99.90;;;;;;5071704;28;20215;-81
2022/01/22 11:14:56;;;;;;;5.13;2.13;;;1.10;99.90;;;;;;5069051;28;20226;-82
2022/01/22 11:17:45;;;;;;;5.17;2.33;;;1.10;99.90;;;;;;5066938;28;20213;-82
2022/01/22 11:20:37;;;;;;;3.73;2.40;;;1.10;99.90;;;;;;5060831;28;20220;-83
2022/01/22 11:23:26;;;;;;;4.70;3.50;;;1.10;99.90;;;;;;5052342;28;20235;-81
2022/01/22 11:26:15;;;;;;;4.00;2.50;;;1.10;99.90;;;;;;5070894;28;20310;-82
2022/01/22 11:29:04;;;;;;;4.63;2.60;;;1.10;99.90;;;;;;5084209;28;20230;-82
2022/01/22 11:31:56;;;;;;;7.13;2.70;;;1.10;99.90;;;;;;5054300;28;20224;-82
2022/01/22 11:34:47;;;;;;;5.83;2.80;;;1.10;99.90;;;;;;5071888;28;20583;-82
2022/01/22 11:37:41;;;;;;;7.97;3.43;;;1.30;99.90;;;;;;5059726;28;20212;-83
2022/01/22 11:40:32;;;;;;;7.33;3.30;;;1.30;99.90;;;;;;5067360;28;20230;-81
2022/01/22 11:43:33;;;;;;;5.63;3.23;;;1.20;99.90;;;;;;5051829;28;20227;-81
2022/01/22 11:46:29;;;;;;;6.80;3.50;;;1.30;99.90;;;;;;5064702;28;20223;-81
2022/01/22 11:49:22;;;;;;;5.43;3.30;;;1.40;99.90;;;;;;5053915;28;20331;-76
2022/01/22 11:52:25;;;;;;;8.10;3.50;;;1.40;99.90;;;;;;5075068;28;20223;-75
2022/01/22 11:55:17;;;;;;;6.93;3.00;;;2.00;99.90;;;;;;5073188;28;20227;-79
2022/01/22 11:58:06;;;;;;;4.80;2.77;;;1.40;99.90;;;;;;5080868;28;20213;-85
2022/01/22 12:00:55;;;;;;;5.17;2.83;;;1.60;99.90;;;;;;5072303;28;20216;-84
2022/01/22 12:03:57;;;;;;;4.87;2.70;;;1.70;99.90;;;;;;5060776;28;20216;-82
2022/01/22 12:07:18;;;;;;;7.30;3.27;;;1.60;99.90;;;;;;5075193;28;20219;-82
2022/01/22 12:10:19;;;;;;;5.77;2.83;;;1.50;99.90;;;;;;5071062;28;20234;-83
2022/01/22 12:16:50;;;;;;;5.27;2.30;;;1.20;99.90;;;;;;5085285;28;20608;-82
2022/01/22 12:20:02;;;;;;;3.60;2.43;;;1.30;99.90;;;;;;5084880;28;20211;-82
2022/01/22 12:22:51;;;;;;;6.30;2.50;;;1.60;99.90;;;;;;5072849;28;20714;-82
2022/01/22 12:25:51;;;;;;;3.83;2.60;;;1.50;99.90;;;;;;5053966;28;20320;-82
2022/01/22 12:28:43;;;;;;;4.63;2.33;;;1.50;99.90;;;;;;5082025;28;20261;-82
2022/01/22 12:31:32;;;;;;;6.50;3.13;;;1.30;99.90;;;;;;5079185;28;20212;-82
2022/01/22 12:35:07;;;;;;;4.37;2.67;;;1.30;99.90;;;;;;5084560;28;20207;-82
2022/01/22 12:38:18;;;;;;;5.30;3.07;;;1.50;99.90;;;;;;5075588;28;20215;-84
2022/01/22 12:41:15;;;;;;;7.23;4.10;;;1.60;99.90;;;;;;5072141;28;20223;-84
2022/01/22 12:44:08;;;;;;;7.53;3.13;;;1.60;99.90;;;;;;5081954;28;20232;-83
2022/01/22 12:47:14;;;;;;;6.87;3.20;;;1.60;99.90;;;;;;5070081;28;20219;-88
2022/01/22 12:50:08;;;;;;;16.47;7.17;;;1.60;99.90;;;;;;5064749;28;21281;-83
2022/01/22 12:53:03;;;;;;;16.90;7.80;;;1.50;99.90;;;;;;5065152;28;20212;-77
2022/01/22 12:59:02;;;;;;;17.83;6.00;;;1.50;99.90;;;;;;5046213;28;20299;-80
2022/01/22 13:01:52;;;;;;;11.13;5.50;;;1.30;99.90;;;;;;5064104;28;20232;-78
2022/01/22 13:04:41;;;;;;;20.70;9.20;;;1.40;99.90;;;;;;5070729;28;20218;-83
2022/01/22 13:07:45;;;;;;;34.07;14.43;;;1.50;99.90;;;;;;5068760;28;20669;-82
2022/01/22 13:11:00;;;;;;;22.00;10.17;;;1.40;99.90;;;;;;5069606;28;21107;-80
2022/01/22 13:13:55;;;;;;;20.37;9.27;;;1.40;99.90;;;;;;5074464;28;20296;-80
2022/01/22 13:16:48;;;;;;;10.63;5.40;;;1.40;99.90;;;;;;5085827;28;20851;-83
2022/01/22 13:19:39;;;;;;;5.33;3.10;;;1.40;99.90;;;;;;5050218;28;20803;-81
2022/01/22 13:22:32;;;;;;;4.67;2.60;;;1.40;99.90;;;;;;5074000;28;20226;-80
2022/01/22 13:25:22;;;;;;;5.33;3.10;;;1.40;99.90;;;;;;5079410;28;20226;-74
2022/01/22 13:28:12;;;;;;;6.10;3.00;;;1.50;99.90;;;;;;5066378;28;20224;-75
2022/01/22 13:31:09;;;;;;;8.00;4.30;;;1.40;99.90;;;;;;5058933;28;20240;-74
2022/01/22 13:34:13;;;;;;;5.53;3.50;;;1.40;99.90;;;;;;5069988;28;20231;-74
2022/01/22 13:40:35;;;;;;;10.47;4.03;;;1.40;99.90;;;;;;5036615;28;20312;-75
2022/01/22 13:49:45;;;;;;;7.23;3.87;;;1.50;99.90;;;;;;5058331;28;20346;-73
2022/01/22 13:52:36;;;;;;;6.27;3.50;;;1.50;99.90;;;;;;5055380;28;20762;-73
2022/01/22 13:55:26;;;;;;;6.83;2.80;;;1.50;99.90;;;;;;5078251;28;21138;-73
2022/01/22 13:58:18;;;;;;;5.00;2.60;;;1.50;99.90;;;;;;5062531;28;20236;-74
2022/01/22 14:01:19;;;;;;;4.87;2.73;;;1.50;99.90;;;;;;5058627;28;20635;-73
2022/01/22 14:04:19;;;;;;;7.73;2.60;;;1.50;99.90;;;;;;5075393;28;20227;-73
2022/01/22 14:07:31;;;;;;;6.87;2.80;;;1.50;99.90;;;;;;5064768;28;20231;-74
2022/01/22 14:10:25;;;;;;;7.80;3.50;;;1.60;99.90;;;;;;5060117;28;20310;-74
2022/01/22 14:13:13;;;;;;;7.87;3.27;;;1.70;99.90;;;;;;5075506;28;20218;-74
2022/01/22 14:16:14;;;;;;;25.67;11.13;;;1.50;99.90;;;;;;5055801;28;21025;-75
2022/01/22 14:19:04;;;;;;;23.73;10.23;;;1.50;99.90;;;;;;5049460;28;20953;-73
2022/01/22 14:21:56;;;;;;;30.77;12.23;;;1.50;99.90;;;;;;5063085;28;20216;-76
2022/01/22 14:24:45;;;;;;;41.27;14.93;;;1.50;99.90;;;;;;5048215;28;20232;-74
2022/01/22 14:27:35;;;;;;;21.00;9.07;;;1.40;99.90;;;;;;5057904;28;20631;-73
2022/01/22 14:30:31;;;;;;;14.67;8.10;;;1.50;99.90;;;;;;5053833;28;20216;-73
2022/01/22 14:33:21;;;;;;;10.80;4.40;;;1.40;99.90;;;;;;5061328;28;20698;-74
2022/01/22 14:36:14;;;;;;;5.70;3.33;;;1.40;99.90;;;;;;5058555;28;20227;-75
2022/01/22 14:39:13;;;;;;;6.60;2.73;;;1.40;99.90;;;;;;5064848;28;20231;-75
2022/01/22 14:45:14;;;;;;;5.67;3.07;;;1.40;99.90;;;;;;5067753;28;20216;-73
2022/01/22 14:48:06;;;;;;;9.77;2.93;;;1.40;99.90;;;;;;5069900;28;20340;-73
2022/01/22 14:50:54;;;;;;;6.83;2.87;;;1.40;99.90;;;;;;5066895;28;20222;-73
2022/01/22 14:53:43;;;;;;;6.87;3.47;;;1.30;99.90;;;;;;5067070;28;20231;-73
2022/01/22 14:56:32;;;;;;;8.10;4.77;;;1.30;99.90;;;;;;5065197;28;20220;-73
2022/01/22 14:59:21;;;;;;;5.70;3.13;;;1.20;99.90;;;;;;5066733;28;20219;-74
2022/01/22 15:02:12;;;;;;;21.37;7.50;;;1.10;99.90;;;;;;5081493;28;20215;-73
2022/01/22 15:05:01;;;;;;;7.43;3.97;;;1.10;99.90;;;;;;5080599;28;20212;-74
2022/01/22 15:07:50;;;;;;;7.83;4.53;;;1.10;99.90;;;;;;5066604;28;20223;-75
2022/01/22 15:10:39;;;;;;;6.63;3.97;;;1.10;99.90;;;;;;5068327;28;20220;-74
2022/01/22 15:13:28;;;;;;;7.97;4.80;;;1.10;99.90;;;;;;5056203;28;20236;-74
2022/01/22 15:16:19;;;;;;;7.60;4.00;;;1.20;99.90;;;;;;5078157;28;20223;-74
2022/01/22 15:19:14;;;;;;;8.20;4.43;;;1.20;99.90;;;;;;5065428;28;20848;-73
2022/01/22 15:22:04;;;;;;;6.53;2.93;;;1.10;99.90;;;;;;5060477;28;20598;-74
2022/01/22 15:24:54;;;;;;;7.07;3.63;;;1.20;99.90;;;;;;5066834;28;20227;-74
2022/01/22 15:27:43;;;;;;;6.23;3.30;;;1.20;99.90;;;;;;5066915;28;20602;-74
2022/01/22 15:30:34;;;;;;;5.07;2.80;;;1.10;99.90;;;;;;5062215;28;20243;-74
2022/01/22 15:33:35;;;;;;;7.70;3.30;;;1.10;99.90;;;;;;5078054;28;20795;-72
2022/01/22 15:36:25;;;;;;;7.70;3.23;;;1.10;99.90;;;;;;5065548;28;20734;-73
2022/01/22 15:39:14;;;;;;;8.33;3.87;;;1.00;99.90;;;;;;5079879;28;20219;-74
2022/01/22 15:42:05;;;;;;;7.90;4.23;;;1.10;99.90;;;;;;5067357;28;20216;-75
2022/01/22 15:44:54;;;;;;;7.43;3.97;;;1.20;99.90;;;;;;5066220;28;20540;-74
2022/01/22 15:47:43;;;;;;;12.37;4.70;;;1.10;99.90;;;;;;5065231;28;20231;-74
2022/01/22 15:50:32;;;;;;;9.83;4.43;;;1.10;99.90;;;;;;5059112;28;20636;-75
2022/01/22 15:53:32;;;;;;;7.47;3.83;;;1.10;99.90;;;;;;5067196;28;20236;-73
2022/01/22 15:56:20;;;;;;;9.20;4.60;;;1.00;99.90;;;;;;5060557;28;20228;-73
2022/01/22 15:59:10;;;;;;;14.17;4.90;;;1.00;99.90;;;;;;5080340;28;20244;-74
2022/01/22 16:02:02;;;;;;;17.97;4.87;;;1.00;99.90;;;;;;5069103;28;20223;-73
2022/01/22 16:04:52;;;;;;;10.77;4.53;;;1.20;99.90;;;;;;5080180;28;20225;-73
2022/01/22 16:07:42;;;;;;;11.80;4.80;;;1.20;99.90;;;;;;5082387;28;20227;-72
2022/01/22 16:10:54;;;;;;;11.37;5.70;;;1.30;99.90;;;;;;5077580;28;20224;-73
2022/01/22 16:13:44;;;;;;;13.97;6.70;;;1.20;99.90;;;;;;5073084;28;20227;-74
2022/01/22 16:16:34;;;;;;;7.60;4.30;;;1.30;99.90;;;;;;5062815;28;20238;-74
2022/01/22 16:19:23;;;;;;;8.10;3.93;;;1.30;99.90;;;;;;5068244;28;20624;-75
2022/01/22 16:22:12;;;;;;;6.50;2.97;;;1.20;99.90;;;;;;5077883;28;20405;-74
2022/01/22 16:25:01;;;;;;;7.13;2.87;;;1.20;99.90;;;;;;5066646;28;20223;-74
2022/01/22 16:27:51;;;;;;;7.70;2.80;;;1.20;99.90;;;;;;5076336;28;20220;-74
2022/01/22 16:30:40;;;;;;;7.27;3.27;;;1.20;99.90;;;;;;5060800;28;20228;-74
2022/01/22 16:33:29;;;;;;;5.47;2.90;;;1.30;99.90;;;;;;5054445;28;20281;-74